createdAt,value
2017-04-24T00:01:02.730Z,58.87
2017-04-24T00:02:13.030Z,58.87
2017-04-24T00:03:22.657Z,59.06
2017-04-24T00:04:32.913Z,59.53
2017-04-24T00:05:43.171Z,60.26
2017-04-24T00:06:53.422Z,60.96
2017-04-24T00:08:03.733Z,59.88
2017-04-24T00:09:14.002Z,58.56
2017-04-24T00:10:24.262Z,58.37
2017-04-24T00:11:34.202Z,58.68
2017-04-24T00:12:44.448Z,58.09
2017-04-24T00:13:54.756Z,58.68
2017-04-24T00:15:04.697Z,58.65
2017-04-24T00:16:14.950Z,59.5
2017-04-24T00:17:24.898Z,60.17
2017-04-24T00:18:35.157Z,60.07
2017-04-24T00:19:45.481Z,59.5
2017-04-24T00:20:55.730Z,59.79
2017-04-24T00:22:06.003Z,59.5
2017-04-24T00:23:16.285Z,59.88
2017-04-24T00:24:26.225Z,59.41
2017-04-24T00:25:36.242Z,59.31
2017-04-24T00:26:46.506Z,58.94
2017-04-24T00:27:56.757Z,59.22
2017-04-24T00:29:06.703Z,58.65
2017-04-24T00:30:16.963Z,58.18
2017-04-24T00:31:27.264Z,58.18
2017-04-24T00:32:37.527Z,58.37
2017-04-24T00:33:47.793Z,59.5
2017-04-24T00:34:58.044Z,59.88
2017-04-24T00:36:07.985Z,59.41
2017-04-24T00:37:18.286Z,59.5
2017-04-24T00:38:28.540Z,59.6
2017-04-24T00:39:38.797Z,60.36
2017-04-24T00:40:49.059Z,61.3
2017-04-24T00:41:59.310Z,61.3
2017-04-24T00:43:09.304Z,60.74
2017-04-24T00:44:19.563Z,60.17
2017-04-24T00:45:29.820Z,60.36
2017-04-24T00:46:39.759Z,61.4
2017-04-24T00:47:50.017Z,62.15
2017-04-24T00:49:02.372Z,62.34
2017-04-24T00:50:12.631Z,63.39
2017-04-24T00:51:22.584Z,63.29
2017-04-24T00:52:32.529Z,63.67
2017-04-24T00:53:42.796Z,64.52
2017-04-24T00:54:53.108Z,64.52
2017-04-24T00:56:03.368Z,65.18
2017-04-24T00:57:13.618Z,64.9
2017-04-24T00:58:23.871Z,66.13
2017-04-24T00:59:34.124Z,66.03
2017-04-24T01:00:44.426Z,67.55
2017-04-24T01:01:54.686Z,67.07
2017-04-24T01:03:04.952Z,66.88
2017-04-24T01:04:14.890Z,67.83
2017-04-24T01:05:25.170Z,68.49
2017-04-24T01:06:35.203Z,68.77
2017-04-24T01:07:45.463Z,68.87
2017-04-24T01:08:55.721Z,69.25
2017-04-24T01:10:05.662Z,69.34
2017-04-24T01:11:14.975Z,68.96
2017-04-24T01:12:25.280Z,69.25
2017-04-24T01:13:35.602Z,69.53
2017-04-24T01:14:45.849Z,70.01
2017-04-24T01:15:55.789Z,70.86
2017-04-24T01:17:06.042Z,70.48
2017-04-24T01:18:16.033Z,71.14
2017-04-24T01:19:26.282Z,70.57
2017-04-24T01:20:36.546Z,70.2
2017-04-24T01:21:46.487Z,70.39
2017-04-24T01:22:56.742Z,69.91
2017-04-24T01:24:06.747Z,70.39
2017-04-24T01:25:16.702Z,71.04
2017-04-24T01:26:26.957Z,70.76
2017-04-24T01:27:37.209Z,70.29
2017-04-24T01:28:47.463Z,70.57
2017-04-24T01:29:57.782Z,70.2
2017-04-24T01:31:08.035Z,70.01
2017-04-24T01:32:18.291Z,69.63
2017-04-24T01:33:28.553Z,69.72
2017-04-24T01:34:38.548Z,69.82
2017-04-24T01:35:48.860Z,69.44
2017-04-24T01:36:59.127Z,69.25
2017-04-24T01:38:09.382Z,70.29
2017-04-24T01:39:19.649Z,70.86
2017-04-24T01:40:29.901Z,71.23
2017-04-24T01:41:40.212Z,70.48
2017-04-24T01:42:50.466Z,70.29
2017-04-24T01:44:00.718Z,69.34
2017-04-24T01:45:10.983Z,69.25
2017-04-24T01:46:20.946Z,69.44
2017-04-24T01:47:31.247Z,68.96
2017-04-24T01:48:41.505Z,69.06
2017-04-24T01:49:51.771Z,69.06
2017-04-24T01:51:01.711Z,68.96
2017-04-24T01:52:11.969Z,69.25
2017-04-24T01:53:22.296Z,69.72
2017-04-24T01:54:32.550Z,70.01
2017-04-24T01:55:42.800Z,69.72
2017-04-24T01:56:53.053Z,69.34
2017-04-24T01:58:03.006Z,69.34
2017-04-24T01:59:12.996Z,69.15
2017-04-24T02:00:23.251Z,68.21
2017-04-24T02:01:32.878Z,67.74
2017-04-24T02:02:43.128Z,67.64
2017-04-24T02:03:53.385Z,68.49
2017-04-24T02:05:03.745Z,67.74
2017-04-24T02:06:13.683Z,68.3
2017-04-24T02:07:23.941Z,68.4
2017-04-24T02:08:34.228Z,68.3
2017-04-24T02:09:44.171Z,68.59
2017-04-24T02:10:54.474Z,68.12
2017-04-24T02:12:04.420Z,68.96
2017-04-24T02:13:14.679Z,68.3
2017-04-24T02:14:24.939Z,68.49
2017-04-24T02:15:35.196Z,67.74
2017-04-24T02:16:45.498Z,68.49
2017-04-24T02:17:55.752Z,67.93
2017-04-24T02:19:06.022Z,67.45
2017-04-24T02:20:15.966Z,66.88
2017-04-24T02:21:26.226Z,65.47
2017-04-24T02:22:36.224Z,65.37
2017-04-24T02:23:46.484Z,64.9
2017-04-24T02:24:56.748Z,65.28
2017-04-24T02:26:07.004Z,64.61
2017-04-24T02:27:16.946Z,64.42
2017-04-24T02:28:27.284Z,64.61
2017-04-24T02:29:37.535Z,63.67
2017-04-24T02:30:47.789Z,63.29
2017-04-24T02:31:57.729Z,63.29
2017-04-24T02:33:07.666Z,63.67
2017-04-24T02:34:17.971Z,63.67
2017-04-24T02:35:28.229Z,63.39
2017-04-24T02:36:38.514Z,63.01
2017-04-24T02:37:48.461Z,63.29
2017-04-24T02:38:58.712Z,62.44
2017-04-24T02:40:08.384Z,62.53
2017-04-24T02:41:18.325Z,61.77
2017-04-24T02:42:28.578Z,62.63
2017-04-24T02:43:38.837Z,62.53
2017-04-24T02:44:48.782Z,62.53
2017-04-24T02:45:59.086Z,62.44
2017-04-24T02:47:09.345Z,62.34
2017-04-24T02:48:19.600Z,61.96
2017-04-24T02:49:29.860Z,62.44
2017-04-24T02:50:40.113Z,62.15
2017-04-24T02:51:50.431Z,62.15
2017-04-24T02:53:00.688Z,62.53
2017-04-24T02:54:10.941Z,62.06
2017-04-24T02:55:20.912Z,62.15
2017-04-24T02:56:31.200Z,61.3
2017-04-24T02:57:41.509Z,61.87
2017-04-24T02:58:51.772Z,61.58
2017-04-24T03:00:02.037Z,62.44
2017-04-24T03:01:11.982Z,62.25
2017-04-24T03:02:21.933Z,61.58
2017-04-24T03:03:32.249Z,61.49
2017-04-24T03:04:42.494Z,61.4
2017-04-24T03:05:52.751Z,62.25
2017-04-24T03:07:03.018Z,61.96
2017-04-24T03:08:13.271Z,61.68
2017-04-24T03:09:23.581Z,61.96
2017-04-24T03:10:33.841Z,62.15
2017-04-24T03:11:44.094Z,61.58
2017-04-24T03:12:54.351Z,61.58
2017-04-24T03:14:04.611Z,61.77
2017-04-24T03:15:13.979Z,61.77
2017-04-24T03:16:23.919Z,61.96
2017-04-24T03:17:34.185Z,62.34
2017-04-24T03:18:44.442Z,62.53
2017-04-24T03:19:54.691Z,62.15
2017-04-24T03:21:04.995Z,62.72
2017-04-24T03:22:15.244Z,63.01
2017-04-24T03:23:25.503Z,63.67
2017-04-24T03:24:35.758Z,63.67
2017-04-24T03:25:46.016Z,64.23
2017-04-24T03:26:56.321Z,64.8
2017-04-24T03:28:06.577Z,64.42
2017-04-24T03:29:16.520Z,64.61
2017-04-24T03:30:26.775Z,64.52
2017-04-24T03:31:37.025Z,65.18
2017-04-24T03:32:47.327Z,65.28
2017-04-24T03:33:57.582Z,65.18
2017-04-24T03:35:07.850Z,64.71
2017-04-24T03:36:17.482Z,65.09
2017-04-24T03:37:27.424Z,65.66
2017-04-24T03:38:37.736Z,65.47
2017-04-24T03:39:47.672Z,65.84
2017-04-24T03:40:57.933Z,66.03
2017-04-24T03:42:07.867Z,66.5
2017-04-24T03:43:17.813Z,66.31
2017-04-24T03:44:28.133Z,66.41
2017-04-24T03:45:38.387Z,65.84
2017-04-24T03:46:48.323Z,65.84
2017-04-24T03:47:58.571Z,66.13
2017-04-24T03:49:08.516Z,67.26
2017-04-24T03:50:18.822Z,67.64
2017-04-24T03:51:29.073Z,67.17
2017-04-24T03:52:39.335Z,66.98
2017-04-24T03:53:49.283Z,67.07
2017-04-24T03:54:59.532Z,67.64
2017-04-24T03:56:09.519Z,66.98
2017-04-24T03:57:19.455Z,67.36
2017-04-24T03:58:29.707Z,67.07
2017-04-24T03:59:39.959Z,67.07
2017-04-24T04:00:49.902Z,68.77
2017-04-24T04:02:00.206Z,68.3
2017-04-24T04:03:10.459Z,68.12
2017-04-24T04:04:20.395Z,69.15
2017-04-24T04:05:30.656Z,69.25
2017-04-24T04:06:40.924Z,70.29
2017-04-24T04:07:51.232Z,70.57
2017-04-24T04:09:01.491Z,71.33
2017-04-24T04:10:11.437Z,72.28
2017-04-24T04:11:21.699Z,73.69
2017-04-24T04:12:31.961Z,74.83
2017-04-24T04:13:42.278Z,75.12
2017-04-24T04:14:52.528Z,76.25
2017-04-24T04:16:02.798Z,77.2
2017-04-24T04:17:13.084Z,78.42
2017-04-24T04:18:23.347Z,80.04
2017-04-24T04:19:33.704Z,80.69
2017-04-24T04:20:43.961Z,81.26
2017-04-24T04:21:54.216Z,81.74
2017-04-24T04:23:04.475Z,83.25
2017-04-24T04:24:14.729Z,83.72
2017-04-24T04:25:25.036Z,84.01
2017-04-24T04:26:35.290Z,83.91
2017-04-24T04:27:45.539Z,83.82
2017-04-24T04:28:55.482Z,83.82
2017-04-24T04:30:05.755Z,84.67
2017-04-24T04:31:15.429Z,84.86
2017-04-24T04:32:25.681Z,85.14
2017-04-24T04:33:35.935Z,84.81
2017-04-24T04:34:45.884Z,85.47
2017-04-24T04:35:55.825Z,85.85
2017-04-24T04:37:05.509Z,86.04
2017-04-24T04:38:15.451Z,86.04
2017-04-24T04:39:25.707Z,86.33
2017-04-24T04:40:35.960Z,86.14
2017-04-24T04:41:46.212Z,86.52
2017-04-24T04:42:56.520Z,86.99
2017-04-24T04:44:06.785Z,86.99
2017-04-24T04:45:17.042Z,86.8
2017-04-24T04:46:26.987Z,87.27
2017-04-24T04:47:37.242Z,87.27
2017-04-24T04:48:47.550Z,87.37
2017-04-24T04:49:57.798Z,87.55
2017-04-24T04:51:07.737Z,87.55
2017-04-24T04:52:17.996Z,88.12
2017-04-24T04:53:28.271Z,88.12
2017-04-24T04:54:38.586Z,88.6
2017-04-24T04:55:48.838Z,89.26
2017-04-24T04:56:59.101Z,89.83
2017-04-24T04:58:09.354Z,89.64
2017-04-24T04:59:19.608Z,89.73
2017-04-24T05:00:29.914Z,88.98
2017-04-24T05:01:40.227Z,89.45
2017-04-24T05:02:50.499Z,89.36
2017-04-24T05:04:00.772Z,89.17
2017-04-24T05:05:11.026Z,89.54
2017-04-24T05:06:21.320Z,88.79
2017-04-24T05:07:31.571Z,88.98
2017-04-24T05:08:41.819Z,88.79
2017-04-24T05:09:52.072Z,89.36
2017-04-24T05:11:02.329Z,88.98
2017-04-24T05:12:12.623Z,89.07
2017-04-24T05:13:22.580Z,89.07
2017-04-24T05:14:32.837Z,88.98
2017-04-24T05:15:43.085Z,88.6
2017-04-24T05:16:53.337Z,89.07
2017-04-24T05:18:03.327Z,88.88
2017-04-24T05:19:13.270Z,88.88
2017-04-24T05:20:23.521Z,89.45
2017-04-24T05:21:33.776Z,89.07
2017-04-24T05:22:44.044Z,89.64
2017-04-24T05:23:54.033Z,89.36
2017-04-24T05:25:03.975Z,90.49
2017-04-24T05:26:13.915Z,90.49
2017-04-24T05:27:24.164Z,90.58
2017-04-24T05:28:34.428Z,90.39
2017-04-24T05:29:44.737Z,90.68
2017-04-24T05:30:54.673Z,90.49
2017-04-24T05:32:04.923Z,90.39
2017-04-24T05:33:14.568Z,90.11
2017-04-24T05:34:24.822Z,90.58
2017-04-24T05:35:35.121Z,89.92
2017-04-24T05:36:45.372Z,90.58
2017-04-24T05:37:55.313Z,90.49
2017-04-24T05:39:05.567Z,90.11
2017-04-24T05:40:15.815Z,89.73
2017-04-24T05:41:26.127Z,89.73
2017-04-24T05:42:36.380Z,89.45
2017-04-24T05:43:46.636Z,88.69
2017-04-24T05:44:56.899Z,89.36
2017-04-24T05:46:07.149Z,88.88
2017-04-24T05:47:17.452Z,88.79
2017-04-24T05:48:27.707Z,88.5
2017-04-24T05:49:37.962Z,88.31
2017-04-24T05:50:47.899Z,88.31
2017-04-24T05:51:58.151Z,88.5
2017-04-24T05:53:07.822Z,88.12
2017-04-24T05:54:17.798Z,88.5
2017-04-24T05:55:28.068Z,88.41
2017-04-24T05:56:38.323Z,89.17
2017-04-24T05:57:48.577Z,89.17
2017-04-24T05:58:58.884Z,88.79
2017-04-24T06:00:08.520Z,88.41
2017-04-24T06:01:18.770Z,88.5
2017-04-24T06:02:28.702Z,87.84
2017-04-24T06:03:38.649Z,88.5
2017-04-24T06:04:48.644Z,88.6
2017-04-24T06:05:58.893Z,88.79
2017-04-24T06:07:09.167Z,88.98
2017-04-24T06:08:19.438Z,89.17
2017-04-24T06:09:29.694Z,88.31
2017-04-24T06:10:40.003Z,88.5
2017-04-24T06:11:50.259Z,88.5
2017-04-24T06:13:00.510Z,88.98
2017-04-24T06:14:10.765Z,89.07
2017-04-24T06:15:20.414Z,89.36
2017-04-24T06:16:30.716Z,88.79
2017-04-24T06:17:40.968Z,88.98
2017-04-24T06:18:51.230Z,88.79
2017-04-24T06:20:01.483Z,88.88
2017-04-24T06:21:11.419Z,88.79
2017-04-24T06:22:21.724Z,89.45
2017-04-24T06:23:31.664Z,89.45
2017-04-24T06:24:41.919Z,88.98
2017-04-24T06:25:52.169Z,89.45
2017-04-24T06:27:02.421Z,89.73
2017-04-24T06:28:12.728Z,89.45
2017-04-24T06:29:22.668Z,90.11
2017-04-24T06:30:32.923Z,90.11
2017-04-24T06:31:43.178Z,90.3
2017-04-24T06:32:53.455Z,90.49
2017-04-24T06:34:03.769Z,89.92
2017-04-24T06:35:14.024Z,89.92
2017-04-24T06:36:23.960Z,90.3
2017-04-24T06:37:34.216Z,90.58
2017-04-24T06:38:44.468Z,90.3
2017-04-24T06:39:56.781Z,90.58
2017-04-24T06:41:07.029Z,91.15
2017-04-24T06:42:16.971Z,91.62
2017-04-24T06:43:27.218Z,92.19
2017-04-24T06:44:37.475Z,92.38
2017-04-24T06:45:47.466Z,92.66
2017-04-24T06:46:57.732Z,93.04
2017-04-24T06:48:08.006Z,93.13
2017-04-24T06:49:17.962Z,93.61
2017-04-24T06:50:28.225Z,94.08
2017-04-24T06:51:38.211Z,93.8
2017-04-24T06:52:48.460Z,93.89
2017-04-24T06:53:58.719Z,94.46
2017-04-24T06:55:08.971Z,94.46
2017-04-24T06:56:18.907Z,94.08
2017-04-24T06:57:29.209Z,95.03
2017-04-24T06:58:39.459Z,95.12
2017-04-24T06:59:49.393Z,95.31
2017-04-24T07:00:59.638Z,95.59
2017-04-24T07:02:09.881Z,95.88
2017-04-24T07:03:20.190Z,96.26
2017-04-24T07:04:29.817Z,95.5
2017-04-24T07:05:40.069Z,95.97
2017-04-24T07:06:50.322Z,96.26
2017-04-24T07:07:59.942Z,95.4
2017-04-24T07:09:10.244Z,95.97
2017-04-24T07:10:20.506Z,96.26
2017-04-24T07:11:30.764Z,96.45
2017-04-24T07:12:41.014Z,96.26
2017-04-24T07:13:51.267Z,96.26
2017-04-24T07:15:01.575Z,96.26
2017-04-24T07:16:11.824Z,96.83
2017-04-24T07:17:22.072Z,96.92
2017-04-24T07:18:32.334Z,97.11
2017-04-24T07:19:42.290Z,97.49
2017-04-24T07:20:52.604Z,97.67
2017-04-24T07:22:02.556Z,98.14
2017-04-24T07:23:12.802Z,98.05
2017-04-24T07:24:22.758Z,98.05
2017-04-24T07:25:33.018Z,98.24
2017-04-24T07:26:42.699Z,97.96
2017-04-24T07:27:52.637Z,98.33
2017-04-24T07:29:02.889Z,98.81
2017-04-24T07:30:13.136Z,98.71
2017-04-24T07:31:23.380Z,98.81
2017-04-24T07:32:33.684Z,98.71
2017-04-24T07:33:43.942Z,98.33
2017-04-24T07:34:54.198Z,98.81
2017-04-24T07:36:04.452Z,99.19
2017-04-24T07:37:14.716Z,99.28
2017-04-24T07:38:24.725Z,98.81
2017-04-24T07:39:34.969Z,98.9
2017-04-24T07:40:44.921Z,98.9
2017-04-24T07:41:55.175Z,99.19
2017-04-24T07:43:05.430Z,98.81
2017-04-24T07:44:14.788Z,98.52
2017-04-24T07:45:24.723Z,99.66
2017-04-24T07:46:34.660Z,99.19
2017-04-24T07:47:44.909Z,98.9
2017-04-24T07:48:55.156Z,99.19
2017-04-24T07:50:05.149Z,99
2017-04-24T07:51:15.409Z,99.38
2017-04-24T07:52:25.346Z,99.09
2017-04-24T07:53:35.599Z,98.9
2017-04-24T07:54:45.849Z,98.9
2017-04-24T07:55:56.152Z,99.38
2017-04-24T07:57:06.396Z,99.57
2017-04-24T07:58:16.647Z,99.19
2017-04-24T07:59:26.907Z,99.28
2017-04-24T08:00:36.840Z,98.9
2017-04-24T08:01:47.141Z,99.38
2017-04-24T08:02:57.080Z,99.47
2017-04-24T08:04:07.338Z,98.9
2017-04-24T08:05:17.286Z,98.9
2017-04-24T08:06:27.533Z,99.47
2017-04-24T08:07:37.768Z,99.09
2017-04-24T08:08:48.029Z,99.57
2017-04-24T08:09:58.288Z,99.38
2017-04-24T08:11:07.911Z,98.71
2017-04-24T08:12:18.169Z,99.47
2017-04-24T08:13:28.368Z,98.52
2017-04-24T08:14:38.626Z,99
2017-04-24T08:15:48.561Z,98.71
2017-04-24T08:16:58.813Z,98.81
2017-04-24T08:18:09.069Z,99.38
2017-04-24T08:19:19.369Z,99.09
2017-04-24T08:20:29.314Z,99
2017-04-24T08:21:39.263Z,99.43
2017-04-24T08:22:49.521Z,99.24
2017-04-24T08:23:59.773Z,99.33
2017-04-24T08:25:12.090Z,98.96
2017-04-24T08:26:22.341Z,98.86
2017-04-24T08:27:32.288Z,98.96
2017-04-24T08:28:42.551Z,99.15
2017-04-24T08:29:52.800Z,98.96
2017-04-24T08:31:03.101Z,99.52
2017-04-24T08:32:13.034Z,99.8
2017-04-24T08:33:22.659Z,98.77
2017-04-24T08:34:32.922Z,98.86
2017-04-24T08:35:43.173Z,99.24
2017-04-24T08:36:53.121Z,98.67
2017-04-24T08:38:03.061Z,99.15
2017-04-24T08:39:12.996Z,98.86
2017-04-24T08:40:23.257Z,98.96
2017-04-24T08:41:33.504Z,98.86
2017-04-24T08:42:43.754Z,99.99
2017-04-24T08:43:54.015Z,99.99
2017-04-24T08:45:03.956Z,98.86
2017-04-24T08:46:14.215Z,99.62
2017-04-24T08:47:24.159Z,99.05
2017-04-24T08:48:34.415Z,98.58
2017-04-24T08:49:44.686Z,99.24
2017-04-24T08:50:54.937Z,99.43
2017-04-24T08:52:05.185Z,99.99
2017-04-24T08:53:15.124Z,99.71
2017-04-24T08:54:25.074Z,99.52
2017-04-24T08:55:35.329Z,98.96
2017-04-24T08:56:45.579Z,99.15
2017-04-24T08:57:55.210Z,98.86
2017-04-24T08:59:05.462Z,99.05
2017-04-24T09:00:15.405Z,99.43
2017-04-24T09:01:25.890Z,98.86
2017-04-24T09:02:36.378Z,98.58
2017-04-24T09:03:46.646Z,98.48
2017-04-24T09:04:56.900Z,98.48
2017-04-24T09:06:07.160Z,98.58
2017-04-24T09:07:17.427Z,97.91
2017-04-24T09:08:27.698Z,97.39
2017-04-24T09:09:37.959Z,98.29
2017-04-24T09:10:48.209Z,98.15
2017-04-24T09:11:58.478Z,98.06
2017-04-24T09:13:08.418Z,97.87
2017-04-24T09:14:18.362Z,97.96
2017-04-24T09:15:28.312Z,97.49
2017-04-24T09:16:38.563Z,97.77
2017-04-24T09:17:48.824Z,97.58
2017-04-24T09:18:59.086Z,97.96
2017-04-24T09:20:09.338Z,98.06
2017-04-24T09:21:19.278Z,97.96
2017-04-24T09:22:29.217Z,97.2
2017-04-24T09:23:39.471Z,98.06
2017-04-24T09:24:49.721Z,96.73
2017-04-24T09:25:59.977Z,96.83
2017-04-24T09:27:09.918Z,96.26
2017-04-24T09:28:20.171Z,96.54
2017-04-24T09:29:30.430Z,96.54
2017-04-24T09:30:40.692Z,95.78
2017-04-24T09:31:50.951Z,95.59
2017-04-24T09:33:01.208Z,95.59
2017-04-24T09:34:11.155Z,95.03
2017-04-24T09:35:21.129Z,95.03
2017-04-24T09:36:31.384Z,94.93
2017-04-24T09:37:41.329Z,95.21
2017-04-24T09:38:50.960Z,95.17
2017-04-24T09:40:01.221Z,95.12
2017-04-24T09:41:11.481Z,95.17
2017-04-24T09:42:21.736Z,95.26
2017-04-24T09:43:31.985Z,93.56
2017-04-24T09:44:42.241Z,94.7
2017-04-24T09:45:52.510Z,94.79
2017-04-24T09:47:02.783Z,95.17
2017-04-24T09:48:13.041Z,94.6
2017-04-24T09:49:22.986Z,94.7
2017-04-24T09:50:33.253Z,93.56
2017-04-24T09:51:43.502Z,93.65
2017-04-24T09:52:53.760Z,93.56
2017-04-24T09:54:03.707Z,93.75
2017-04-24T09:55:13.957Z,93.37
2017-04-24T09:56:24.209Z,93.65
2017-04-24T09:57:34.148Z,93.46
2017-04-24T09:58:44.410Z,92.99
2017-04-24T09:59:54.662Z,93.08
2017-04-24T10:01:04.927Z,93.37
2017-04-24T10:02:14.563Z,92.14
2017-04-24T10:03:24.820Z,91.48
2017-04-24T10:04:35.080Z,92.24
2017-04-24T10:05:45.336Z,92.05
2017-04-24T10:06:55.289Z,92.19
2017-04-24T10:08:05.549Z,92.09
2017-04-24T10:09:15.827Z,91.76
2017-04-24T10:10:26.086Z,91.71
2017-04-24T10:11:36.340Z,92.28
2017-04-24T10:12:46.592Z,91.33
2017-04-24T10:13:56.837Z,91
2017-04-24T10:15:07.098Z,92.14
2017-04-24T10:16:17.351Z,92.24
2017-04-24T10:17:27.606Z,91.38
2017-04-24T10:18:37.550Z,91.57
2017-04-24T10:19:47.819Z,91.86
2017-04-24T10:20:58.070Z,91.48
2017-04-24T10:22:08.332Z,91.67
2017-04-24T10:23:18.594Z,90.48
2017-04-24T10:24:28.850Z,90.39
2017-04-24T10:25:38.792Z,90.1
2017-04-24T10:26:49.045Z,89.82
2017-04-24T10:27:59.309Z,89.3
2017-04-24T10:29:09.567Z,89.82
2017-04-24T10:30:19.190Z,89.44
2017-04-24T10:31:29.447Z,90.01
2017-04-24T10:32:39.704Z,89.68
2017-04-24T10:33:49.961Z,89.63
2017-04-24T10:35:00.222Z,89.49
2017-04-24T10:36:10.157Z,89.53
2017-04-24T10:37:20.410Z,89.72
2017-04-24T10:38:30.348Z,89.49
2017-04-24T10:39:40.599Z,89.15
2017-04-24T10:40:50.854Z,89.34
2017-04-24T10:42:01.104Z,89.91
2017-04-24T10:43:11.363Z,89.82
2017-04-24T10:44:21.625Z,89.15
2017-04-24T10:45:31.885Z,89.34
2017-04-24T10:46:41.825Z,88.96
2017-04-24T10:47:52.080Z,88.4
2017-04-24T10:49:02.341Z,87.83
2017-04-24T10:50:12.292Z,88.3
2017-04-24T10:51:22.553Z,88.49
2017-04-24T10:52:32.804Z,88.96
2017-04-24T10:53:43.063Z,88.87
2017-04-24T10:54:53.317Z,87.45
2017-04-24T10:56:03.579Z,88.96
2017-04-24T10:57:12.907Z,88.96
2017-04-24T10:58:23.157Z,89.44
2017-04-24T10:59:33.406Z,89.72
2017-04-24T11:00:43.662Z,89.15
2017-04-24T11:01:53.914Z,89.15
2017-04-24T11:03:04.176Z,88.78
2017-04-24T11:04:14.114Z,88.96
2017-04-24T11:05:24.383Z,88.59
2017-04-24T11:06:34.325Z,88.49
2017-04-24T11:07:44.266Z,88.21
2017-04-24T11:08:54.525Z,88.21
2017-04-24T11:10:04.472Z,87.83
2017-04-24T11:11:14.422Z,87.73
2017-04-24T11:12:24.678Z,87.73
2017-04-24T11:13:34.621Z,87.73
2017-04-24T11:14:44.880Z,87.45
2017-04-24T11:15:55.137Z,87.92
2017-04-24T11:17:05.387Z,87.35
2017-04-24T11:18:15.017Z,87.83
2017-04-24T11:19:25.279Z,87.73
2017-04-24T11:20:35.550Z,88.11
2017-04-24T11:21:45.814Z,87.64
2017-04-24T11:22:56.068Z,87.54
2017-04-24T11:24:06.014Z,87.73
2017-04-24T11:25:16.276Z,87.54
2017-04-24T11:26:26.538Z,87.73
2017-04-24T11:27:36.795Z,87.45
2017-04-24T11:28:46.740Z,87.16
2017-04-24T11:29:57.001Z,87.35
2017-04-24T11:31:06.957Z,86.98
2017-04-24T11:32:16.266Z,87.07
2017-04-24T11:33:26.204Z,87.35
2017-04-24T11:34:36.149Z,87.54
2017-04-24T11:35:46.090Z,87.54
2017-04-24T11:36:56.346Z,87.45
2017-04-24T11:38:06.596Z,87.54
2017-04-24T11:39:16.860Z,87.64
2017-04-24T11:40:27.142Z,88.68
2017-04-24T11:41:37.395Z,89.2
2017-04-24T11:42:47.650Z,89.72
2017-04-24T11:43:57.592Z,88.78
2017-04-24T11:45:07.527Z,88.78
2017-04-24T11:46:17.788Z,88.3
2017-04-24T11:47:27.728Z,87.54
2017-04-24T11:48:37.987Z,87.54
2017-04-24T11:49:47.947Z,87.26
2017-04-24T11:50:58.209Z,87.07
2017-04-24T11:52:08.464Z,87.83
2017-04-24T11:53:18.408Z,87.26
2017-04-24T11:54:28.661Z,87.35
2017-04-24T11:55:38.915Z,87.64
2017-04-24T11:56:49.166Z,87.83
2017-04-24T11:57:59.428Z,87.92
2017-04-24T11:59:09.375Z,87.54
2017-04-24T12:00:19.647Z,87.64
2017-04-24T12:01:29.910Z,86.88
2017-04-24T12:02:40.170Z,86.79
2017-04-24T12:03:50.432Z,87.45
2017-04-24T12:05:00.695Z,86.07
2017-04-24T12:06:10.323Z,86.41
2017-04-24T12:07:20.270Z,86.5
2017-04-24T12:08:30.531Z,86.5
2017-04-24T12:09:40.474Z,85.93
2017-04-24T12:10:50.730Z,85.46
2017-04-24T12:12:00.980Z,85.41
2017-04-24T12:13:10.296Z,85.46
2017-04-24T12:14:20.249Z,85.55
2017-04-24T12:15:30.509Z,86.41
2017-04-24T12:16:40.454Z,86.41
2017-04-24T12:17:50.394Z,86.5
2017-04-24T12:19:00.659Z,86.31
2017-04-24T12:20:10.910Z,86.79
2017-04-24T12:21:21.166Z,86.5
2017-04-24T12:22:31.428Z,86.22
2017-04-24T12:23:41.689Z,86.41
2017-04-24T12:24:51.628Z,86.41
2017-04-24T12:26:01.898Z,85.93
2017-04-24T12:27:12.154Z,86.41
2017-04-24T12:28:22.413Z,86.41
2017-04-24T12:29:32.670Z,86.41
2017-04-24T12:30:42.923Z,86.22
2017-04-24T12:31:52.884Z,86.12
2017-04-24T12:33:03.148Z,86.03
2017-04-24T12:34:13.399Z,87.35
2017-04-24T12:35:23.344Z,87.64
2017-04-24T12:36:33.602Z,88.73
2017-04-24T12:37:43.550Z,89.82
2017-04-24T12:38:53.810Z,89.15
2017-04-24T12:40:03.763Z,89.11
2017-04-24T12:41:13.383Z,88.82
2017-04-24T12:42:23.007Z,89.49
2017-04-24T12:43:32.639Z,89.3
2017-04-24T12:44:42.892Z,89.2
2017-04-24T12:45:53.144Z,89.11
2017-04-24T12:47:03.394Z,88.96
2017-04-24T12:48:13.023Z,89.06
2017-04-24T12:49:22.978Z,89.68
2017-04-24T12:50:33.257Z,89.77
2017-04-24T12:51:43.519Z,89.49
2017-04-24T12:52:53.772Z,89.96
2017-04-24T12:54:04.044Z,89.87
2017-04-24T12:55:14.305Z,89.3
2017-04-24T12:56:24.561Z,89.68
2017-04-24T12:57:34.500Z,90.34
2017-04-24T12:58:44.445Z,89.68
2017-04-24T12:59:54.703Z,89.77
2017-04-24T13:01:04.648Z,89.11
2017-04-24T13:02:14.589Z,89.01
2017-04-24T13:03:24.536Z,88.92
2017-04-24T13:04:34.787Z,89.49
2017-04-24T13:05:45.035Z,89.68
2017-04-24T13:06:55.288Z,89.77
2017-04-24T13:08:05.538Z,89.68
2017-04-24T13:09:15.480Z,89.77
2017-04-24T13:10:24.795Z,89.39
2017-04-24T13:11:34.745Z,89.49
2017-04-24T13:12:45.004Z,89.68
2017-04-24T13:13:55.258Z,90.06
2017-04-24T13:15:05.204Z,89.39
2017-04-24T13:16:15.463Z,89.58
2017-04-24T13:17:25.724Z,89.49
2017-04-24T13:18:35.987Z,89.77
2017-04-24T13:19:45.927Z,89.68
2017-04-24T13:20:55.556Z,89.87
2017-04-24T13:22:05.813Z,89.87
2017-04-24T13:23:15.441Z,89.63
2017-04-24T13:24:25.700Z,90.01
2017-04-24T13:25:35.945Z,91.05
2017-04-24T13:26:46.204Z,90.96
2017-04-24T13:27:56.153Z,91.53
2017-04-24T13:29:06.409Z,91.72
2017-04-24T13:30:15.726Z,91.72
2017-04-24T13:31:25.407Z,92.47
2017-04-24T13:32:35.667Z,92.94
2017-04-24T13:33:45.642Z,92.66
2017-04-24T13:34:55.902Z,93.04
2017-04-24T13:36:05.853Z,92.85
2017-04-24T13:37:15.791Z,93.42
2017-04-24T13:38:26.060Z,93.61
2017-04-24T13:39:36.318Z,92.76
2017-04-24T13:40:45.939Z,93.04
2017-04-24T13:41:55.564Z,92.76
2017-04-24T13:43:05.498Z,92.57
2017-04-24T13:44:15.751Z,92.94
2017-04-24T13:45:25.705Z,93.32
2017-04-24T13:46:35.957Z,93.61
2017-04-24T13:47:46.205Z,93.89
2017-04-24T13:48:56.461Z,93.89
2017-04-24T13:50:06.101Z,93.42
2017-04-24T13:51:15.427Z,93.99
2017-04-24T13:52:24.748Z,93.42
2017-04-24T13:53:34.695Z,93.89
2017-04-24T13:54:44.953Z,94.08
2017-04-24T13:55:55.219Z,94.56
2017-04-24T13:57:05.477Z,94.18
2017-04-24T13:58:15.108Z,94.27
2017-04-24T13:59:25.358Z,94.93
2017-04-24T14:00:34.678Z,95.31
2017-04-24T14:01:44.355Z,94.93
2017-04-24T14:02:53.361Z,94.93
2017-04-24T14:04:03.619Z,95.21
2017-04-24T14:05:13.559Z,95.21
2017-04-24T14:06:23.805Z,95.5
2017-04-24T14:07:34.059Z,95.21
2017-04-24T14:08:44.323Z,95.4
2017-04-24T14:09:54.262Z,95.4
2017-04-24T14:11:03.576Z,96.26
2017-04-24T14:12:12.593Z,96.54
2017-04-24T14:13:21.590Z,96.35
2017-04-24T14:14:30.592Z,96.26
2017-04-24T14:15:40.841Z,96.26
2017-04-24T14:16:51.095Z,96.54
2017-04-24T14:18:01.032Z,96.26
2017-04-24T14:19:10.970Z,96.26
2017-04-24T14:20:20.597Z,97.2
2017-04-24T14:21:29.605Z,97.2
2017-04-24T14:22:39.221Z,97.44
2017-04-24T14:23:48.529Z,97.72
2017-04-24T14:24:57.842Z,97.63
2017-04-24T14:26:07.777Z,98.67
2017-04-24T14:27:18.028Z,98.58
2017-04-24T14:28:28.282Z,99.15
2017-04-24T14:29:38.532Z,98.96
2017-04-24T14:30:48.781Z,98.96
2017-04-24T14:31:59.033Z,99.24
2017-04-24T14:33:09.299Z,99.05
2017-04-24T14:34:19.250Z,99.99
2017-04-24T14:35:29.509Z,99.99
2017-04-24T14:36:39.762Z,99.99
2017-04-24T14:37:50.012Z,99.99
2017-04-24T14:39:00.265Z,99.99
2017-04-24T14:40:10.510Z,99.99
2017-04-24T14:41:20.449Z,99.99
2017-04-24T14:42:30.707Z,99.99
2017-04-24T14:43:40.964Z,99.99
2017-04-24T14:44:50.904Z,99.99
2017-04-24T14:46:01.153Z,99.99
2017-04-24T14:47:11.410Z,99.99
2017-04-24T14:48:21.348Z,99.99
2017-04-24T14:49:31.605Z,99.99
2017-04-24T14:50:41.860Z,99.99
2017-04-24T14:51:52.110Z,99.99
2017-04-24T14:53:02.369Z,99.99
2017-04-24T14:54:12.621Z,99.99
2017-04-24T14:55:22.555Z,99.99
2017-04-24T14:56:32.808Z,99.99
2017-04-24T14:57:43.062Z,99.99
2017-04-24T14:58:53.007Z,99.99
2017-04-24T15:00:02.948Z,99.99
2017-04-24T15:01:12.882Z,99.99
2017-04-24T15:02:22.500Z,99.99
2017-04-24T15:03:32.754Z,99.99
2017-04-24T15:04:43.014Z,99.62
2017-04-24T15:05:53.274Z,99.8
2017-04-24T15:07:03.532Z,99.99